UUWW/VKO METAR and TAF weather

Enter ICAO airport designator
Station Type Date Time Source
UUWW METAR 2021/09/16 10:30 UTC NOAA

UUWW 161030Z 01003MPS 9999 BKN030 10/04 Q1019 R24/000065 NOSIG


Station Type Date Time Source
UUWW Decoded METAR 2021/09/16 10:30 UTC NOAA

Moscow / Vnukovo , Russia (UUWW) 55-39N 037-16E
Sep 16, 2021 - 06:30 AM EDT / 2021.09.16 1030 UTC
Wind: from the N (010 degrees) at 7 MPH (6 KT):0
Visibility: greater than 7 mile(s):0
Sky conditions: mostly cloudy
Temperature: 50 F (10 C)
Dew Point: 39 F (4 C)
Relative Humidity: 66%
Pressure (altimeter): 30.09 in. Hg (1019 hPa)
ob: UUWW 161030Z 01003MPS 9999 BKN030 10/04 Q1019 R24/000065 NOSIG
cycle: 10

Station Type Date Time Source
UUWW TAF 2021/09/16 09:22 UTC NOAA

TAF UUWW 160759Z 1609/1709 33005MPS 8000 FEW004 BKN016 TX10/1612Z TN03/1703Z
BECMG 1618/1620 03003MPS
TEMPO 1619/1707 BKN003

Example: see airport list